KAVXKOXR

Guest
Details From KAVX - Catalina
To KOXR - Oxnard
Flight Number -
Tags generated
Created
Modified
Stats Distance 62 nm / 115 km
Max Altitude 7,700 ft / 2,347 m
Waypoints 4
Social Downloads 0
Likes 0
Share VATSIM

Download

Looking for another format? Having issues loading an existing format? Contact us
Advertisement - Login to hide

Notes

Basic altitude profile: - Ascent Rate: 2500ft/min - Ascent Speed: 250kts - Cruise Altitude: 35000ft - Cruise Speed: 420kts - Descent Rate: 1500ft/min - Descent Speed: 250kts Options: - Use NATs: yes - Use PACOTS: yes - Use low airways: yes - Use high airways: yes

Route

KAVX PAROL V27 DOYLE KOXR

ID Type Via Altitude Latitude Longitude Leg Dist Tot Dist Heading (true) Name
O KAVX APT - 0 ft / 0 m 33.40466˚ -118.41588˚ - 0 nm - Catalina
PAROL FIX - 5,300 ft / 1,615 m 33.59606˚ -118.60494˚ 14 nm 14 nm 321° / 320° -
DOYLE FIX V27 (AWY-LO) 7,700 ft / 2,347 m 33.74199˚ -118.73036˚ 10 nm 25 nm 324° / 324° -
O KOXR APT - 0 ft / 0 m 34.20082˚ -119.20723˚ 36 nm 62 nm 319° / 319° Oxnard

Altitude Profile

Advertisement - Login to hide

KAVX

Details ICAO KAVX (AVX)
Name Catalina
Region United States
Timezone America/Los_Angeles (UTC-7.0)
Stats Elevation 1,601 ft / 488 m (AMSL)
Location 33.404656° -118.415880°
Runways 1
Magnetic Variation 11.863° E

METAR

KAVX 250851Z AUTO 27009KT 10SM BKN003 BKN007 OVC015 11/11 A3010 RMK AO2 SLP190 T01110111 50000 $

Decode

TAF

Not found

Departure Runways

ID Width Length Bearing (true) Bearing (mag) Surface Threshold Offset Overrun Length
04 59 ft / 18 m 3,127 ft / 953 m 54.93° 43.07° Asphalt 131 ft / 40 m 0 ft / 0 m
22 59 ft / 18 m 3,127 ft / 953 m 234.93° 223.07° Asphalt 62 ft / 19 m 0 ft / 0 m

KOXR

Details ICAO KOXR (OXR)
Name Oxnard
Region United States
Timezone America/Los_Angeles (UTC-7.0)
Stats Elevation 43 ft / 13 m (AMSL)
Location 34.200819° -119.207233°
Runways 1
Magnetic Variation 12.172° E

METAR

KOXR 250851Z AUTO 28007KT 10SM OVC045 15/12 A3009 RMK AO2 SLP187 T01500117 58003

Decode

TAF

TAF KOXR 250540Z 2506/2606 27010KT P6SM SCT015 OVC035 FM251200 VRB03KT 6SM -DZ BR BKN015 OVC030 FM251700 26010KT P6SM BKN025 OVC035 FM252000 26015KT P6SM BKN040 FM260400 27007KT P6SM BKN025

Decode

Destination Runways

ID Width Length Bearing (true) Bearing (mag) Surface Threshold Offset Overrun Length
07 98 ft / 30 m 5,953 ft / 1,815 m 90.53° 78.36° Asphalt 0 ft / 0 m 0 ft / 0 m
25 98 ft / 30 m 5,953 ft / 1,815 m 270.54° 258.37° Asphalt 1,378 ft / 420 m 0 ft / 0 m

Approach Navaids

Runway Type Ident Frequency Range Bearing (true) Bearing (mag) Slope Elevation
25 Localiser IOXR 108.70 MHz 18 nm / 33 km 270.48° 258.30° - 28 ft / 9 m (AMSL)
25 Glidescope IOXR 108.70 MHz 10 nm / 19 km 270.53° 258.36° 3.00° 41 ft / 12 m (AMSL)

Popular Alternatives